Arab, Missouri
Current Conditions -  °F | °C
As of 9:25 AM on Monday 22 Dec 2014 (Local Time) from KPOF Reporting Station
Light Rain Light Rain  
Wind Chill: 41°   Ceiling: 300
Heat Index: 47°   Visibility: 2.5mi
Dew Point: 45°   Wind: 14mph
Humidity: 93%   Direction: 150°SSE
Pressure: 29.76"   Gusts: NA
Location:  37.1241°N, 90.0834°W
Report Text: KPOF 221525Z AUTO 15012KT 2 1/2SM -RA BR OVC003 08/07 A2976 RMK AO2 P0009 T00830072
Loading
Personal Weather Stations






























Interactive Weather Map New forecast layout! Learn more

10-Day Weather Forecast

Advertisements
Track Severe Weather on mobile